sensor_id;sensor_type;location;lat;lon;timestamp;temperature;humidity
75925;DHT22;64604;44.752;37.674;2022-11-15T00:00:40;4.37;90.99
75925;DHT22;64604;44.752;37.674;2022-11-15T00:02:00;4.36;90.98
75925;DHT22;64604;44.752;37.674;2022-11-15T00:03:25;4.36;91.18
75925;DHT22;64604;44.752;37.674;2022-11-15T00:04:45;4.38;91.18
75925;DHT22;64604;44.752;37.674;2022-11-15T00:06:05;4.37;91.28
75925;DHT22;64604;44.752;37.674;2022-11-15T00:07:25;4.37;91.21
75925;DHT22;64604;44.752;37.674;2022-11-15T00:08:45;4.36;91.31
75925;DHT22;64604;44.752;37.674;2022-11-15T00:10:05;4.33;91.30
75925;DHT22;64604;44.752;37.674;2022-11-15T00:11:26;4.32;91.35
75925;DHT22;64604;44.752;37.674;2022-11-15T00:12:45;4.32;91.37
75925;DHT22;64604;44.752;37.674;2022-11-15T00:14:05;4.33;91.29
75925;DHT22;64604;44.752;37.674;2022-11-15T00:15:25;4.31;91.37
75925;DHT22;64604;44.752;37.674;2022-11-15T00:16:45;4.32;91.31
75925;DHT22;64604;44.752;37.674;2022-11-15T00:18:05;4.30;91.29
75925;DHT22;64604;44.752;37.674;2022-11-15T00:19:25;4.29;91.22
75925;DHT22;64604;44.752;37.674;2022-11-15T00:20:45;4.28;91.19
75925;DHT22;64604;44.752;37.674;2022-11-15T00:22:05;4.27;91.22
75925;DHT22;64604;44.752;37.674;2022-11-15T00:23:25;4.26;91.20
75925;DHT22;64604;44.752;37.674;2022-11-15T00:24:44;4.24;91.20
75925;DHT22;64604;44.752;37.674;2022-11-15T00:26:05;4.22;91.25
75925;DHT22;64604;44.752;37.674;2022-11-15T00:27:26;4.22;91.38
75925;DHT22;64604;44.752;37.674;2022-11-15T00:28:46;4.20;91.39
75925;DHT22;64604;44.752;37.674;2022-11-15T00:30:06;4.17;91.50
75925;DHT22;64604;44.752;37.674;2022-11-15T00:31:26;4.16;91.55
75925;DHT22;64604;44.752;37.674;2022-11-15T00:32:46;4.17;91.56
75925;DHT22;64604;44.752;37.674;2022-11-15T00:34:06;4.15;91.65
75925;DHT22;64604;44.752;37.674;2022-11-15T00:35:26;4.15;91.79
75925;DHT22;64604;44.752;37.674;2022-11-15T00:36:46;4.14;91.77
75925;DHT22;64604;44.752;37.674;2022-11-15T00:38:06;4.16;91.63
75925;DHT22;64604;44.752;37.674;2022-11-15T00:39:26;4.20;91.14
75925;DHT22;64604;44.752;37.674;2022-11-15T00:40:46;4.24;91.35
75925;DHT22;64604;44.752;37.674;2022-11-15T00:42:05;4.27;91.51
75925;DHT22;64604;44.752;37.674;2022-11-15T00:43:25;4.27;91.25
75925;DHT22;64604;44.752;37.674;2022-11-15T00:44:45;4.23;91.34
75925;DHT22;64604;44.752;37.674;2022-11-15T00:46:05;4.22;91.34
75925;DHT22;64604;44.752;37.674;2022-11-15T00:47:25;4.21;91.36
75925;DHT22;64604;44.752;37.674;2022-11-15T00:48:45;4.20;91.20
75925;DHT22;64604;44.752;37.674;2022-11-15T00:50:05;4.19;91.31
75925;DHT22;64604;44.752;37.674;2022-11-15T00:51:25;4.17;91.23
75925;DHT22;64604;44.752;37.674;2022-11-15T00:52:45;4.19;91.33
75925;DHT22;64604;44.752;37.674;2022-11-15T00:54:04;4.18;90.98
75925;DHT22;64604;44.752;37.674;2022-11-15T00:55:24;4.17;91.10
75925;DHT22;64604;44.752;37.674;2022-11-15T00:56:44;4.16;91.14
75925;DHT22;64604;44.752;37.674;2022-11-15T00:58:04;4.15;91.33
75925;DHT22;64604;44.752;37.674;2022-11-15T00:59:24;4.16;91.31
75925;DHT22;64604;44.752;37.674;2022-11-15T01:00:44;4.14;91.02
75925;DHT22;64604;44.752;37.674;2022-11-15T01:02:03;4.14;91.18
75925;DHT22;64604;44.752;37.674;2022-11-15T01:03:23;4.08;91.12
75925;DHT22;64604;44.752;37.674;2022-11-15T01:04:43;4.10;91.53
75925;DHT22;64604;44.752;37.674;2022-11-15T01:06:03;4.10;91.47
75925;DHT22;64604;44.752;37.674;2022-11-15T01:07:23;4.16;91.31
75925;DHT22;64604;44.752;37.674;2022-11-15T01:08:43;4.17;91.03
75925;DHT22;64604;44.752;37.674;2022-11-15T01:10:04;4.21;91.13
75925;DHT22;64604;44.752;37.674;2022-11-15T01:11:24;4.21;90.79
75925;DHT22;64604;44.752;37.674;2022-11-15T01:12:44;4.21;90.69
75925;DHT22;64604;44.752;37.674;2022-11-15T01:14:04;4.22;90.68
75925;DHT22;64604;44.752;37.674;2022-11-15T01:15:23;4.22;90.45
75925;DHT22;64604;44.752;37.674;2022-11-15T01:16:43;4.19;90.52
75925;DHT22;64604;44.752;37.674;2022-11-15T01:18:03;4.19;90.62
75925;DHT22;64604;44.752;37.674;2022-11-15T01:19:23;4.17;90.61
75925;DHT22;64604;44.752;37.674;2022-11-15T01:20:43;4.15;90.76
75925;DHT22;64604;44.752;37.674;2022-11-15T01:22:03;4.13;90.81
75925;DHT22;64604;44.752;37.674;2022-11-15T01:23:23;4.13;91.06
75925;DHT22;64604;44.752;37.674;2022-11-15T01:24:43;4.12;91.33
75925;DHT22;64604;44.752;37.674;2022-11-15T01:26:06;4.12;91.69
75925;DHT22;64604;44.752;37.674;2022-11-15T01:27:26;4.12;91.50
75925;DHT22;64604;44.752;37.674;2022-11-15T01:28:46;4.09;91.47
75925;DHT22;64604;44.752;37.674;2022-11-15T01:30:06;4.09;92.10
75925;DHT22;64604;44.752;37.674;2022-11-15T01:31:27;4.10;91.89
75925;DHT22;64604;44.752;37.674;2022-11-15T01:32:47;4.09;91.91
75925;DHT22;64604;44.752;37.674;2022-11-15T01:34:07;4.05;91.67
75925;DHT22;64604;44.752;37.674;2022-11-15T01:35:26;4.03;91.93
75925;DHT22;64604;44.752;37.674;2022-11-15T01:36:47;4.06;92.29
75925;DHT22;64604;44.752;37.674;2022-11-15T01:38:07;4.08;91.42
75925;DHT22;64604;44.752;37.674;2022-11-15T01:39:27;4.06;91.41
75925;DHT22;64604;44.752;37.674;2022-11-15T01:40:47;4.06;91.59
75925;DHT22;64604;44.752;37.674;2022-11-15T01:42:12;4.06;91.66
75925;DHT22;64604;44.752;37.674;2022-11-15T01:43:34;4.04;91.75
75925;DHT22;64604;44.752;37.674;2022-11-15T01:44:54;4.01;91.58
75925;DHT22;64604;44.752;37.674;2022-11-15T01:46:27;3.98;91.63
75925;DHT22;64604;44.752;37.674;2022-11-15T01:47:51;3.94;91.83
75925;DHT22;64604;44.752;37.674;2022-11-15T01:49:16;3.92;91.79
75925;DHT22;64604;44.752;37.674;2022-11-15T01:50:36;3.89;91.93
75925;DHT22;64604;44.752;37.674;2022-11-15T01:51:57;3.89;92.38
75925;DHT22;64604;44.752;37.674;2022-11-15T01:53:19;3.91;92.39
75925;DHT22;64604;44.752;37.674;2022-11-15T01:54:40;3.89;92.26
75925;DHT22;64604;44.752;37.674;2022-11-15T01:56:03;3.91;92.42
75925;DHT22;64604;44.752;37.674;2022-11-15T01:57:24;3.91;92.40
75925;DHT22;64604;44.752;37.674;2022-11-15T01:58:44;3.91;92.35
75925;DHT22;64604;44.752;37.674;2022-11-15T02:00:05;3.92;92.56
75925;DHT22;64604;44.752;37.674;2022-11-15T02:01:26;3.91;92.51
75925;DHT22;64604;44.752;37.674;2022-11-15T02:02:48;3.90;92.45
75925;DHT22;64604;44.752;37.674;2022-11-15T02:04:20;3.93;93.06
75925;DHT22;64604;44.752;37.674;2022-11-15T02:05:41;3.93;92.79
75925;DHT22;64604;44.752;37.674;2022-11-15T02:07:03;3.93;92.69
75925;DHT22;64604;44.752;37.674;2022-11-15T02:08:24;3.91;92.83
75925;DHT22;64604;44.752;37.674;2022-11-15T02:09:45;3.91;92.89
75925;DHT22;64604;44.752;37.674;2022-11-15T02:11:07;3.90;92.92
75925;DHT22;64604;44.752;37.674;2022-11-15T02:12:27;3.91;93.05
75925;DHT22;64604;44.752;37.674;2022-11-15T02:13:47;3.98;92.84
75925;DHT22;64604;44.752;37.674;2022-11-15T02:15:33;3.97;92.55
75925;DHT22;64604;44.752;37.674;2022-11-15T02:19:02;3.94;93.10
75925;DHT22;64604;44.752;37.674;2022-11-15T02:22:26;3.89;92.91
75925;DHT22;64604;44.752;37.674;2022-11-15T02:26:50;3.85;93.24
75925;DHT22;64604;44.752;37.674;2022-11-15T02:32:18;3.79;93.72
75925;DHT22;64604;44.752;37.674;2022-11-15T02:37:30;3.78;94.22
75925;DHT22;64604;44.752;37.674;2022-11-15T02:39:02;3.76;93.99
75925;DHT22;64604;44.752;37.674;2022-11-15T02:42:14;3.74;94.33
75925;DHT22;64604;44.752;37.674;2022-11-15T02:44:02;3.75;94.32
75925;DHT22;64604;44.752;37.674;2022-11-15T02:45:48;3.72;94.24
75925;DHT22;64604;44.752;37.674;2022-11-15T02:47:13;3.73;94.30
75925;DHT22;64604;44.752;37.674;2022-11-15T02:48:35;3.73;94.04
75925;DHT22;64604;44.752;37.674;2022-11-15T02:49:59;3.71;93.89
75925;DHT22;64604;44.752;37.674;2022-11-15T02:51:20;3.72;93.88
75925;DHT22;64604;44.752;37.674;2022-11-15T02:52:44;3.74;93.71
75925;DHT22;64604;44.752;37.674;2022-11-15T02:54:04;3.76;93.54
75925;DHT22;64604;44.752;37.674;2022-11-15T02:55:32;3.76;93.17
75925;DHT22;64604;44.752;37.674;2022-11-15T02:56:54;3.76;93.21
75925;DHT22;64604;44.752;37.674;2022-11-15T03:03:33;3.87;91.90
75925;DHT22;64604;44.752;37.674;2022-11-15T03:09:45;3.82;92.37
75925;DHT22;64604;44.752;37.674;2022-11-15T03:11:18;3.77;92.36
75925;DHT22;64604;44.752;37.674;2022-11-15T03:14:34;3.73;92.64
75925;DHT22;64604;44.752;37.674;2022-11-15T03:16:16;3.74;92.59
75925;DHT22;64604;44.752;37.674;2022-11-15T03:18:14;3.74;92.66
75925;DHT22;64604;44.752;37.674;2022-11-15T03:21:06;3.72;92.38
75925;DHT22;64604;44.752;37.674;2022-11-15T03:22:32;3.69;92.29
75925;DHT22;64604;44.752;37.674;2022-11-15T03:23:52;3.70;92.49
75925;DHT22;64604;44.752;37.674;2022-11-15T03:25:18;3.64;92.50
75925;DHT22;64604;44.752;37.674;2022-11-15T03:26:41;3.63;92.63
75925;DHT22;64604;44.752;37.674;2022-11-15T03:28:05;3.59;92.68
75925;DHT22;64604;44.752;37.674;2022-11-15T03:29:50;3.60;92.98
75925;DHT22;64604;44.752;37.674;2022-11-15T03:31:11;3.60;92.67
75925;DHT22;64604;44.752;37.674;2022-11-15T03:32:56;3.61;92.67
75925;DHT22;64604;44.752;37.674;2022-11-15T03:34:40;3.62;92.59
75925;DHT22;64604;44.752;37.674;2022-11-15T03:36:01;3.59;92.50
75925;DHT22;64604;44.752;37.674;2022-11-15T03:37:27;3.59;92.57
75925;DHT22;64604;44.752;37.674;2022-11-15T03:38:53;3.59;92.99
75925;DHT22;64604;44.752;37.674;2022-11-15T03:40:15;3.60;92.90
75925;DHT22;64604;44.752;37.674;2022-11-15T03:45:43;3.62;92.65
75925;DHT22;64604;44.752;37.674;2022-11-15T03:47:18;3.62;92.61
75925;DHT22;64604;44.752;37.674;2022-11-15T03:48:43;3.63;92.74
75925;DHT22;64604;44.752;37.674;2022-11-15T03:50:10;3.62;92.78
75925;DHT22;64604;44.752;37.674;2022-11-15T03:51:31;3.61;92.77
75925;DHT22;64604;44.752;37.674;2022-11-15T03:52:54;3.61;92.92
75925;DHT22;64604;44.752;37.674;2022-11-15T03:54:14;3.60;92.47
75925;DHT22;64604;44.752;37.674;2022-11-15T03:55:34;3.59;92.36
75925;DHT22;64604;44.752;37.674;2022-11-15T03:56:54;3.61;92.44
75925;DHT22;64604;44.752;37.674;2022-11-15T03:58:14;3.60;92.16
75925;DHT22;64604;44.752;37.674;2022-11-15T03:59:34;3.58;92.03
75925;DHT22;64604;44.752;37.674;2022-11-15T04:00:53;3.55;92.23
75925;DHT22;64604;44.752;37.674;2022-11-15T04:02:14;3.56;92.30
75925;DHT22;64604;44.752;37.674;2022-11-15T04:03:34;3.57;92.50
75925;DHT22;64604;44.752;37.674;2022-11-15T04:04:53;3.58;92.24
75925;DHT22;64604;44.752;37.674;2022-11-15T04:06:13;3.58;92.37
75925;DHT22;64604;44.752;37.674;2022-11-15T04:07:33;3.59;92.12
75925;DHT22;64604;44.752;37.674;2022-11-15T04:08:53;3.60;91.96
75925;DHT22;64604;44.752;37.674;2022-11-15T04:10:13;3.60;92.00
75925;DHT22;64604;44.752;37.674;2022-11-15T04:11:33;3.60;91.77
75925;DHT22;64604;44.752;37.674;2022-11-15T04:12:53;3.60;91.58
75925;DHT22;64604;44.752;37.674;2022-11-15T04:14:13;3.59;91.59
75925;DHT22;64604;44.752;37.674;2022-11-15T04:15:33;3.58;91.50
75925;DHT22;64604;44.752;37.674;2022-11-15T04:16:53;3.56;91.37
75925;DHT22;64604;44.752;37.674;2022-11-15T04:18:13;3.54;91.39
75925;DHT22;64604;44.752;37.674;2022-11-15T04:19:33;3.53;91.37
75925;DHT22;64604;44.752;37.674;2022-11-15T04:21:11;3.52;91.11
75925;DHT22;64604;44.752;37.674;2022-11-15T04:22:57;3.50;91.23
75925;DHT22;64604;44.752;37.674;2022-11-15T04:24:36;3.50;91.11
75925;DHT22;64604;44.752;37.674;2022-11-15T04:25:59;3.49;90.89
75925;DHT22;64604;44.752;37.674;2022-11-15T04:27:19;3.48;90.91
75925;DHT22;64604;44.752;37.674;2022-11-15T04:28:39;3.47;90.72
75925;DHT22;64604;44.752;37.674;2022-11-15T04:30:18;3.47;90.86
75925;DHT22;64604;44.752;37.674;2022-11-15T04:31:38;3.42;91.09
75925;DHT22;64604;44.752;37.674;2022-11-15T04:32:58;3.34;91.34
75925;DHT22;64604;44.752;37.674;2022-11-15T04:34:17;3.29;91.51
75925;DHT22;64604;44.752;37.674;2022-11-15T04:35:38;3.24;91.62
75925;DHT22;64604;44.752;37.674;2022-11-15T04:36:58;3.19;91.72
75925;DHT22;64604;44.752;37.674;2022-11-15T04:38:35;3.13;92.01
75925;DHT22;64604;44.752;37.674;2022-11-15T04:39:55;3.10;92.25
75925;DHT22;64604;44.752;37.674;2022-11-15T04:41:15;3.04;92.44
75925;DHT22;64604;44.752;37.674;2022-11-15T04:42:35;3.01;92.26
75925;DHT22;64604;44.752;37.674;2022-11-15T04:43:55;3.00;92.61
75925;DHT22;64604;44.752;37.674;2022-11-15T04:45:15;3.03;92.65
75925;DHT22;64604;44.752;37.674;2022-11-15T04:46:34;3.08;92.18
75925;DHT22;64604;44.752;37.674;2022-11-15T04:47:54;3.12;91.65
75925;DHT22;64604;44.752;37.674;2022-11-15T04:49:14;3.19;91.30
75925;DHT22;64604;44.752;37.674;2022-11-15T04:50:34;3.27;90.83
75925;DHT22;64604;44.752;37.674;2022-11-15T04:51:54;3.35;90.20
75925;DHT22;64604;44.752;37.674;2022-11-15T04:53:14;3.47;89.50
75925;DHT22;64604;44.752;37.674;2022-11-15T04:54:34;3.55;88.89
75925;DHT22;64604;44.752;37.674;2022-11-15T04:55:54;3.63;88.46
75925;DHT22;64604;44.752;37.674;2022-11-15T04:57:14;3.70;88.10
75925;DHT22;64604;44.752;37.674;2022-11-15T04:58:34;3.75;87.91
75925;DHT22;64604;44.752;37.674;2022-11-15T04:59:54;3.80;87.61
75925;DHT22;64604;44.752;37.674;2022-11-15T05:01:14;3.85;87.48
75925;DHT22;64604;44.752;37.674;2022-11-15T05:02:34;3.91;87.21
75925;DHT22;64604;44.752;37.674;2022-11-15T05:04:12;3.97;87.06
75925;DHT22;64604;44.752;37.674;2022-11-15T05:05:38;4.05;86.94
75925;DHT22;64604;44.752;37.674;2022-11-15T05:06:58;4.08;86.88
75925;DHT22;64604;44.752;37.674;2022-11-15T05:08:18;4.15;86.71
75925;DHT22;64604;44.752;37.674;2022-11-15T05:09:38;4.19;86.69
75925;DHT22;64604;44.752;37.674;2022-11-15T05:10:58;4.20;86.64
75925;DHT22;64604;44.752;37.674;2022-11-15T05:12:17;4.21;86.59
75925;DHT22;64604;44.752;37.674;2022-11-15T05:13:37;4.24;86.57
75925;DHT22;64604;44.752;37.674;2022-11-15T05:14:57;4.27;86.46
75925;DHT22;64604;44.752;37.674;2022-11-15T05:16:17;4.31;86.35
75925;DHT22;64604;44.752;37.674;2022-11-15T05:17:37;4.34;86.31
75925;DHT22;64604;44.752;37.674;2022-11-15T05:18:56;4.38;86.23
75925;DHT22;64604;44.752;37.674;2022-11-15T05:20:16;4.39;85.97
75925;DHT22;64604;44.752;37.674;2022-11-15T05:21:36;4.47;85.85
75925;DHT22;64604;44.752;37.674;2022-11-15T05:22:57;4.49;85.67
75925;DHT22;64604;44.752;37.674;2022-11-15T05:24:17;4.54;85.55
75925;DHT22;64604;44.752;37.674;2022-11-15T05:25:36;4.61;85.34
75925;DHT22;64604;44.752;37.674;2022-11-15T05:26:57;4.64;85.22
75925;DHT22;64604;44.752;37.674;2022-11-15T05:28:16;4.64;85.15
75925;DHT22;64604;44.752;37.674;2022-11-15T05:29:36;4.59;85.13
75925;DHT22;64604;44.752;37.674;2022-11-15T05:31:10;4.58;85.22
75925;DHT22;64604;44.752;37.674;2022-11-15T05:32:31;4.64;85.27
75925;DHT22;64604;44.752;37.674;2022-11-15T05:33:51;4.72;85.05
75925;DHT22;64604;44.752;37.674;2022-11-15T05:35:21;4.80;84.61
75925;DHT22;64604;44.752;37.674;2022-11-15T05:36:45;4.88;84.37
75925;DHT22;64604;44.752;37.674;2022-11-15T05:38:05;4.93;84.22
75925;DHT22;64604;44.752;37.674;2022-11-15T05:39:25;5.00;84.06
75925;DHT22;64604;44.752;37.674;2022-11-15T05:40:48;5.05;83.77
75925;DHT22;64604;44.752;37.674;2022-11-15T05:42:11;5.11;83.36
75925;DHT22;64604;44.752;37.674;2022-11-15T05:43:33;5.19;83.23
75925;DHT22;64604;44.752;37.674;2022-11-15T05:44:53;5.27;82.81
75925;DHT22;64604;44.752;37.674;2022-11-15T05:46:13;5.35;82.50
75925;DHT22;64604;44.752;37.674;2022-11-15T05:47:35;5.43;81.98
75925;DHT22;64604;44.752;37.674;2022-11-15T05:48:56;5.51;82.15
75925;DHT22;64604;44.752;37.674;2022-11-15T05:50:17;5.61;81.67
75925;DHT22;64604;44.752;37.674;2022-11-15T05:51:38;5.68;80.17
75925;DHT22;64604;44.752;37.674;2022-11-15T05:52:58;5.76;80.81
75925;DHT22;64604;44.752;37.674;2022-11-15T05:54:20;5.84;79.92
75925;DHT22;64604;44.752;37.674;2022-11-15T05:55:41;5.94;80.11
75925;DHT22;64604;44.752;37.674;2022-11-15T05:57:01;6.01;79.76
75925;DHT22;64604;44.752;37.674;2022-11-15T05:58:21;6.11;79.38
75925;DHT22;64604;44.752;37.674;2022-11-15T05:59:42;6.21;78.95
75925;DHT22;64604;44.752;37.674;2022-11-15T06:01:03;6.29;78.21
75925;DHT22;64604;44.752;37.674;2022-11-15T06:02:23;6.39;77.55
75925;DHT22;64604;44.752;37.674;2022-11-15T06:03:45;6.44;77.69
75925;DHT22;64604;44.752;37.674;2022-11-15T06:05:05;6.52;77.22
75925;DHT22;64604;44.752;37.674;2022-11-15T06:06:27;6.59;76.11
75925;DHT22;64604;44.752;37.674;2022-11-15T06:07:47;6.67;76.44
75925;DHT22;64604;44.752;37.674;2022-11-15T06:09:07;6.78;75.30
75925;DHT22;64604;44.752;37.674;2022-11-15T06:10:27;6.87;75.67
75925;DHT22;64604;44.752;37.674;2022-11-15T06:11:46;6.93;74.69
75925;DHT22;64604;44.752;37.674;2022-11-15T06:13:07;6.99;74.85
75925;DHT22;64604;44.752;37.674;2022-11-15T06:14:27;7.07;74.48
75925;DHT22;64604;44.752;37.674;2022-11-15T06:15:47;7.13;73.34
75925;DHT22;64604;44.752;37.674;2022-11-15T06:17:07;7.19;73.60
75925;DHT22;64604;44.752;37.674;2022-11-15T06:18:27;7.24;73.30
75925;DHT22;64604;44.752;37.674;2022-11-15T06:19:47;7.32;73.17
75925;DHT22;64604;44.752;37.674;2022-11-15T06:21:06;7.42;71.98
75925;DHT22;64604;44.752;37.674;2022-11-15T06:22:26;7.48;71.87
75925;DHT22;64604;44.752;37.674;2022-11-15T06:23:46;7.56;71.59
75925;DHT22;64604;44.752;37.674;2022-11-15T06:25:07;7.60;71.99
75925;DHT22;64604;44.752;37.674;2022-11-15T06:26:27;7.69;71.47
75925;DHT22;64604;44.752;37.674;2022-11-15T06:27:51;7.75;70.14
75925;DHT22;64604;44.752;37.674;2022-11-15T06:29:11;7.82;70.51
75925;DHT22;64604;44.752;37.674;2022-11-15T06:30:31;7.88;70.66
75925;DHT22;64604;44.752;37.674;2022-11-15T06:31:51;7.94;69.43
75925;DHT22;64604;44.752;37.674;2022-11-15T06:33:12;7.99;69.29
75925;DHT22;64604;44.752;37.674;2022-11-15T06:34:32;7.97;68.72
75925;DHT22;64604;44.752;37.674;2022-11-15T06:35:52;7.97;69.84
75925;DHT22;64604;44.752;37.674;2022-11-15T06:37:11;8.05;69.63
75925;DHT22;64604;44.752;37.674;2022-11-15T06:38:31;8.09;69.33
75925;DHT22;64604;44.752;37.674;2022-11-15T06:39:51;8.17;68.15
75925;DHT22;64604;44.752;37.674;2022-11-15T06:41:12;8.21;67.15
75925;DHT22;64604;44.752;37.674;2022-11-15T06:42:32;8.23;66.94
75925;DHT22;64604;44.752;37.674;2022-11-15T06:43:52;8.27;67.11
75925;DHT22;64604;44.752;37.674;2022-11-15T06:45:12;8.32;66.02
75925;DHT22;64604;44.752;37.674;2022-11-15T06:46:31;8.30;66.32
75925;DHT22;64604;44.752;37.674;2022-11-15T06:47:52;8.32;65.22
75925;DHT22;64604;44.752;37.674;2022-11-15T06:49:15;8.36;65.50
75925;DHT22;64604;44.752;37.674;2022-11-15T06:50:36;8.41;66.65
75925;DHT22;64604;44.752;37.674;2022-11-15T06:51:56;8.46;65.21
75925;DHT22;64604;44.752;37.674;2022-11-15T06:53:15;8.46;64.50
75925;DHT22;64604;44.752;37.674;2022-11-15T06:54:35;8.51;63.91
75925;DHT22;64604;44.752;37.674;2022-11-15T06:56:01;8.62;64.55
75925;DHT22;64604;44.752;37.674;2022-11-15T06:57:21;8.62;64.07
75925;DHT22;64604;44.752;37.674;2022-11-15T06:58:41;8.68;65.20
75925;DHT22;64604;44.752;37.674;2022-11-15T07:00:03;8.73;63.88
75925;DHT22;64604;44.752;37.674;2022-11-15T07:01:23;8.72;63.84
75925;DHT22;64604;44.752;37.674;2022-11-15T07:02:43;8.75;63.94
75925;DHT22;64604;44.752;37.674;2022-11-15T07:04:03;8.81;62.68
75925;DHT22;64604;44.752;37.674;2022-11-15T07:05:23;8.87;62.95
75925;DHT22;64604;44.752;37.674;2022-11-15T07:06:42;8.91;63.91
75925;DHT22;64604;44.752;37.674;2022-11-15T07:08:05;8.91;62.34
75925;DHT22;64604;44.752;37.674;2022-11-15T07:09:25;8.95;61.86
75925;DHT22;64604;44.752;37.674;2022-11-15T07:10:45;8.96;61.96
75925;DHT22;64604;44.752;37.674;2022-11-15T07:12:05;9.01;61.50
75925;DHT22;64604;44.752;37.674;2022-11-15T07:13:26;9.04;61.00
75925;DHT22;64604;44.752;37.674;2022-11-15T07:14:46;9.03;60.52
75925;DHT22;64604;44.752;37.674;2022-11-15T07:16:08;9.06;61.18
75925;DHT22;64604;44.752;37.674;2022-11-15T07:17:28;9.14;61.34
75925;DHT22;64604;44.752;37.674;2022-11-15T07:18:48;9.17;61.53
75925;DHT22;64604;44.752;37.674;2022-11-15T07:20:08;9.21;60.60
75925;DHT22;64604;44.752;37.674;2022-11-15T07:21:28;9.31;60.93
75925;DHT22;64604;44.752;37.674;2022-11-15T07:22:48;9.39;58.89
75925;DHT22;64604;44.752;37.674;2022-11-15T07:24:08;9.48;59.35
75925;DHT22;64604;44.752;37.674;2022-11-15T07:25:28;9.51;59.38
75925;DHT22;64604;44.752;37.674;2022-11-15T07:26:48;9.59;59.56
75925;DHT22;64604;44.752;37.674;2022-11-15T07:28:08;9.67;57.81
75925;DHT22;64604;44.752;37.674;2022-11-15T07:29:28;9.69;58.15
75925;DHT22;64604;44.752;37.674;2022-11-15T07:30:47;9.75;58.96
75925;DHT22;64604;44.752;37.674;2022-11-15T13:11:49;8.60;70.81
75925;DHT22;64604;44.752;37.674;2022-11-15T13:12:53;8.57;70.18
75925;DHT22;64604;44.752;37.674;2022-11-15T13:13:55;8.53;70.47
75925;DHT22;64604;44.752;37.674;2022-11-15T13:15:07;8.50;70.73
75925;DHT22;64604;44.752;37.674;2022-11-15T13:16:25;8.45;70.93
75925;DHT22;64604;44.752;37.674;2022-11-15T13:17:36;8.43;71.21
75925;DHT22;64604;44.752;37.674;2022-11-15T13:18:40;8.38;71.38
75925;DHT22;64604;44.752;37.674;2022-11-15T13:19:43;8.35;71.55
75925;DHT22;64604;44.752;37.674;2022-11-15T13:20:45;8.33;71.80
75925;DHT22;64604;44.752;37.674;2022-11-15T13:21:49;8.31;71.99
75925;DHT22;64604;44.752;37.674;2022-11-15T13:23:12;8.28;72.25
75925;DHT22;64604;44.752;37.674;2022-11-15T13:24:16;8.26;72.33
75925;DHT22;64604;44.752;37.674;2022-11-15T13:26:40;8.18;72.77
75925;DHT22;64604;44.752;37.674;2022-11-15T13:27:42;8.15;72.86
75925;DHT22;64604;44.752;37.674;2022-11-15T13:28:51;8.11;73.44
75925;DHT22;64604;44.752;37.674;2022-11-15T13:29:55;8.06;73.40
75925;DHT22;64604;44.752;37.674;2022-11-15T13:32:27;7.98;73.92
75925;DHT22;64604;44.752;37.674;2022-11-15T13:33:34;7.94;74.31
75925;DHT22;64604;44.752;37.674;2022-11-15T13:34:37;7.91;74.48
75925;DHT22;64604;44.752;37.674;2022-11-15T13:35:40;7.87;74.57
75925;DHT22;64604;44.752;37.674;2022-11-15T13:36:42;7.84;74.72
75925;DHT22;64604;44.752;37.674;2022-11-15T13:37:43;7.81;75.03
75925;DHT22;64604;44.752;37.674;2022-11-15T13:38:54;7.76;75.62
75925;DHT22;64604;44.752;37.674;2022-11-15T13:40:10;7.71;75.99
75925;DHT22;64604;44.752;37.674;2022-11-15T13:41:20;7.67;75.73
75925;DHT22;64604;44.752;37.674;2022-11-15T13:42:22;7.64;75.72
75925;DHT22;64604;44.752;37.674;2022-11-15T13:43:34;7.60;75.94
75925;DHT22;64604;44.752;37.674;2022-11-15T13:44:36;7.56;76.05
75925;DHT22;64604;44.752;37.674;2022-11-15T13:45:37;7.52;76.30
75925;DHT22;64604;44.752;37.674;2022-11-15T13:46:39;7.47;76.50
75925;DHT22;64604;44.752;37.674;2022-11-15T13:47:41;7.43;76.76
75925;DHT22;64604;44.752;37.674;2022-11-15T13:48:45;7.39;76.95
75925;DHT22;64604;44.752;37.674;2022-11-15T13:49:47;7.35;77.25
75925;DHT22;64604;44.752;37.674;2022-11-15T13:50:49;7.32;77.37
75925;DHT22;64604;44.752;37.674;2022-11-15T13:51:53;7.28;77.63
75925;DHT22;64604;44.752;37.674;2022-11-15T13:52:58;7.24;77.73
75925;DHT22;64604;44.752;37.674;2022-11-15T13:54:13;7.20;78.22
75925;DHT22;64604;44.752;37.674;2022-11-15T13:55:19;7.16;78.24
75925;DHT22;64604;44.752;37.674;2022-11-15T13:56:22;7.11;78.42
75925;DHT22;64604;44.752;37.674;2022-11-15T13:57:27;7.08;78.67
75925;DHT22;64604;44.752;37.674;2022-11-15T13:58:30;7.03;78.75
75925;DHT22;64604;44.752;37.674;2022-11-15T13:59:37;6.99;79.20
75925;DHT22;64604;44.752;37.674;2022-11-15T14:00:46;6.95;79.25
75925;DHT22;64604;44.752;37.674;2022-11-15T14:01:49;6.93;79.43
75925;DHT22;64604;44.752;37.674;2022-11-15T14:02:54;6.89;79.69
75925;DHT22;64604;44.752;37.674;2022-11-15T14:04:00;6.85;79.96
75925;DHT22;64604;44.752;37.674;2022-11-15T14:05:15;6.83;80.67
75925;DHT22;64604;44.752;37.674;2022-11-15T14:06:19;6.79;80.40
75925;DHT22;64604;44.752;37.674;2022-11-15T14:07:24;6.72;80.49
75925;DHT22;64604;44.752;37.674;2022-11-15T14:08:26;6.70;80.74
75925;DHT22;64604;44.752;37.674;2022-11-15T14:10:37;6.60;81.21
75925;DHT22;64604;44.752;37.674;2022-11-15T14:11:55;6.58;81.94
75925;DHT22;64604;44.752;37.674;2022-11-15T14:12:58;6.53;81.49
75925;DHT22;64604;44.752;37.674;2022-11-15T14:15:34;6.46;82.61
75925;DHT22;64604;44.752;37.674;2022-11-15T14:16:44;6.40;82.10
75925;DHT22;64604;44.752;37.674;2022-11-15T14:17:46;6.39;82.16
75925;DHT22;64604;44.752;37.674;2022-11-15T14:18:52;6.35;82.29
75925;DHT22;64604;44.752;37.674;2022-11-15T14:19:54;6.33;82.34
75925;DHT22;64604;44.752;37.674;2022-11-15T14:21:06;6.29;82.95
75925;DHT22;64604;44.752;37.674;2022-11-15T14:22:23;6.26;83.00
75925;DHT22;64604;44.752;37.674;2022-11-15T14:23:27;6.23;82.73
75925;DHT22;64604;44.752;37.674;2022-11-15T14:24:30;6.21;82.72
75925;DHT22;64604;44.752;37.674;2022-11-15T14:25:34;6.19;82.85
75925;DHT22;64604;44.752;37.674;2022-11-15T14:26:36;6.15;82.85
75925;DHT22;64604;44.752;37.674;2022-11-15T14:27:39;6.14;82.87
75925;DHT22;64604;44.752;37.674;2022-11-15T14:28:41;6.10;82.96
75925;DHT22;64604;44.752;37.674;2022-11-15T14:29:42;6.09;82.94
75925;DHT22;64604;44.752;37.674;2022-11-15T14:30:45;6.07;82.97
75925;DHT22;64604;44.752;37.674;2022-11-15T14:31:52;6.04;83.04
75925;DHT22;64604;44.752;37.674;2022-11-15T14:32:54;6.01;83.11
75925;DHT22;64604;44.752;37.674;2022-11-15T14:33:55;5.99;83.07
75925;DHT22;64604;44.752;37.674;2022-11-15T14:34:59;5.97;83.10
75925;DHT22;64604;44.752;37.674;2022-11-15T14:36:20;5.94;83.55
75925;DHT22;64604;44.752;37.674;2022-11-15T14:37:28;5.89;83.68